createdAt,value
2022-12-31T00:00:00.392Z,94.12
2022-12-31T00:05:00.500Z,93.74
2022-12-31T00:10:00.619Z,93.01
2022-12-31T00:15:00.432Z,92.84
2022-12-31T00:20:00.462Z,92.48
2022-12-31T00:25:00.502Z,92.91
2022-12-31T00:30:04.513Z,93.25
2022-12-31T00:35:00.510Z,93.69
2022-12-31T00:40:00.456Z,93.81
2022-12-31T00:45:00.469Z,94.18
2022-12-31T00:50:00.528Z,94.49
2022-12-31T00:55:00.626Z,94.35
2022-12-31T01:00:00.425Z,94.57
2022-12-31T01:05:00.398Z,94.59
2022-12-31T01:10:00.377Z,93.93
2022-12-31T01:15:00.435Z,93.62
2022-12-31T01:20:00.444Z,93.48
2022-12-31T01:25:00.403Z,93.48
2022-12-31T01:30:00.484Z,93.76
2022-12-31T01:35:00.418Z,93.67
2022-12-31T01:40:00.441Z,93.91
2022-12-31T01:45:00.425Z,93.69
2022-12-31T01:50:05.925Z,93.92
2022-12-31T01:55:04.884Z,94.06
2022-12-31T02:00:02.992Z,94.01
2022-12-31T02:05:04.499Z,93.76
2022-12-31T02:10:00.735Z,93.56
2022-12-31T02:15:00.542Z,93.81
2022-12-31T02:20:20.346Z,93.47
2022-12-31T02:25:07.778Z,93.11
2022-12-31T02:30:07.852Z,92.93
2022-12-31T02:35:08.256Z,92.84
2022-12-31T02:40:03.193Z,93.35
2022-12-31T02:45:00.406Z,93.46
2022-12-31T02:50:18.004Z,93.50
2022-12-31T02:55:16.677Z,93.82
2022-12-31T03:00:05.614Z,93.84
2022-12-31T03:05:02.171Z,93.91
2022-12-31T03:10:00.690Z,94.03
2022-12-31T03:15:00.416Z,94.31
2022-12-31T03:20:00.556Z,94.98
2022-12-31T03:25:03.353Z,95.05
2022-12-31T03:30:00.479Z,95.23
2022-12-31T03:35:00.619Z,94.86
2022-12-31T03:40:00.421Z,95.05
2022-12-31T03:45:00.594Z,94.76
2022-12-31T03:50:00.410Z,95.04
2022-12-31T03:55:00.403Z,94.87
2022-12-31T04:00:00.506Z,94.88
2022-12-31T04:05:00.406Z,95.08
2022-12-31T04:10:01.747Z,95.19
2022-12-31T04:15:00.592Z,95.22
2022-12-31T04:20:00.597Z,95.30
2022-12-31T04:25:00.458Z,95.57
2022-12-31T04:30:00.449Z,95.54
2022-12-31T04:35:00.452Z,96.04
2022-12-31T04:40:05.737Z,96.11
2022-12-31T04:45:00.368Z,96.18
2022-12-31T04:50:00.490Z,96.06
2022-12-31T04:55:00.413Z,96.08
2022-12-31T05:00:00.459Z,96.24
2022-12-31T05:05:00.430Z,96.20
2022-12-31T05:10:00.365Z,96.63
2022-12-31T05:15:00.474Z,96.46
2022-12-31T05:20:00.378Z,96.22
2022-12-31T05:25:00.379Z,96.26
2022-12-31T05:30:00.534Z,96.33
2022-12-31T05:35:00.443Z,96.08
2022-12-31T05:40:00.447Z,95.64
2022-12-31T05:45:00.361Z,95.63
2022-12-31T05:50:00.391Z,95.42
2022-12-31T05:55:00.584Z,95.67
2022-12-31T06:00:00.482Z,95.89
2022-12-31T06:05:00.480Z,95.55
2022-12-31T06:10:00.430Z,95.91
2022-12-31T06:15:00.407Z,96.06
2022-12-31T06:20:01.244Z,96.20
2022-12-31T06:25:00.416Z,96.39
2022-12-31T06:30:00.367Z,96.83
2022-12-31T06:35:00.455Z,97.29
2022-12-31T06:40:00.648Z,97.29
2022-12-31T06:45:00.387Z,97.26
2022-12-31T06:50:00.417Z,97.36
2022-12-31T06:55:00.639Z,97.30
2022-12-31T07:00:00.878Z,97.12
2022-12-31T07:05:10.944Z,96.92
2022-12-31T07:10:13.616Z,96.91
2022-12-31T07:15:04.969Z,97.07
2022-12-31T07:20:11.373Z,96.89
2022-12-31T07:25:00.616Z,96.96
2022-12-31T07:30:13.949Z,97.11
2022-12-31T07:35:11.361Z,97.12
2022-12-31T07:40:10.541Z,97.37
2022-12-31T07:45:11.510Z,97.28
2022-12-31T07:50:00.554Z,97.23
2022-12-31T07:55:00.511Z,96.82
2022-12-31T08:00:12.085Z,95.10
2022-12-31T08:05:01.416Z,94.13
2022-12-31T08:10:04.766Z,94.62
2022-12-31T08:15:00.853Z,94.98
2022-12-31T08:20:00.562Z,94.65
2022-12-31T08:25:20.277Z,94.26
2022-12-31T08:30:08.029Z,94.39
2022-12-31T08:35:15.603Z,94.44
2022-12-31T08:40:20.348Z,94.38
2022-12-31T08:45:20.332Z,94.66
2022-12-31T08:50:00.921Z,94.73
2022-12-31T08:55:00.563Z,94.99
2022-12-31T09:00:05.966Z,94.73
2022-12-31T09:05:20.418Z,94.79
2022-12-31T09:10:15.271Z,94.55
2022-12-31T09:15:17.130Z,94.05
2022-12-31T09:20:00.913Z,93.62
2022-12-31T09:25:00.565Z,93.00
2022-12-31T09:30:05.522Z,92.64
2022-12-31T09:35:10.290Z,92.07
2022-12-31T09:40:17.912Z,91.89
2022-12-31T09:45:13.601Z,90.92
2022-12-31T09:50:20.422Z,90.56
2022-12-31T09:55:11.396Z,90.12
2022-12-31T10:00:11.058Z,90.58
2022-12-31T10:05:17.928Z,90.60
2022-12-31T10:10:20.387Z,90.30
2022-12-31T10:15:17.237Z,90.20
2022-12-31T10:20:13.833Z,89.71
2022-12-31T10:25:20.382Z,89.65
2022-12-31T10:30:12.608Z,89.70
2022-12-31T10:35:17.983Z,89.51
2022-12-31T10:40:12.747Z,89.57
2022-12-31T10:45:20.381Z,88.90
2022-12-31T10:50:20.269Z,89.04
2022-12-31T10:55:20.330Z,88.79
2022-12-31T11:00:10.481Z,89.84
2022-12-31T11:05:20.281Z,90.40
2022-12-31T11:10:11.343Z,90.46
2022-12-31T11:15:17.811Z,89.48
2022-12-31T11:20:10.369Z,88.70
2022-12-31T11:25:10.362Z,88.23
2022-12-31T11:30:09.801Z,85.76
2022-12-31T11:35:15.195Z,84.95
2022-12-31T11:40:10.315Z,84.41
2022-12-31T11:45:20.273Z,84.62
2022-12-31T11:50:20.383Z,86.23
2022-12-31T11:55:04.750Z,85.82
2022-12-31T12:00:13.403Z,86.05
2022-12-31T12:05:08.520Z,85.26
2022-12-31T12:10:09.284Z,84.96
2022-12-31T12:15:06.843Z,85.52
2022-12-31T12:20:12.345Z,86.39
2022-12-31T12:25:06.147Z,87.28
2022-12-31T12:30:16.604Z,87.99
2022-12-31T12:35:00.385Z,88.01
2022-12-31T12:40:03.470Z,87.78
2022-12-31T12:45:02.501Z,87.49
2022-12-31T12:50:00.600Z,87.01
2022-12-31T12:55:20.295Z,86.55
2022-12-31T13:00:11.735Z,86.39
2022-12-31T13:05:24.474Z,85.61
2022-12-31T13:10:14.905Z,86.11
2022-12-31T13:15:11.342Z,86.04
2022-12-31T13:20:11.105Z,86.33
2022-12-31T13:25:16.282Z,87.19
2022-12-31T13:30:08.262Z,87.32
2022-12-31T13:35:14.224Z,87.44
2022-12-31T13:40:06.294Z,88.43
2022-12-31T13:45:08.424Z,88.48
2022-12-31T13:50:14.533Z,88.46
2022-12-31T13:55:12.372Z,87.78
2022-12-31T14:00:20.304Z,87.56
2022-12-31T14:05:10.307Z,86.99
2022-12-31T14:10:00.586Z,86.12
2022-12-31T14:15:20.378Z,84.46
2022-12-31T14:20:11.346Z,83.47
2022-12-31T14:25:04.427Z,81.49
2022-12-31T14:30:05.436Z,80.07
2022-12-31T14:35:11.355Z,80.39
2022-12-31T14:40:15.678Z,80.23
2022-12-31T14:45:18.343Z,80.28
2022-12-31T14:50:12.048Z,79.38
2022-12-31T14:55:01.989Z,79.19
2022-12-31T15:00:11.669Z,77.70
2022-12-31T15:05:12.971Z,77.22
2022-12-31T15:10:20.269Z,76.25
2022-12-31T15:15:17.954Z,76.15
2022-12-31T15:20:16.989Z,76.46
2022-12-31T15:25:01.075Z,75.38
2022-12-31T15:30:01.165Z,74.76
2022-12-31T15:35:02.024Z,74.65
2022-12-31T15:40:18.506Z,74.06
2022-12-31T15:45:06.243Z,72.70
2022-12-31T15:50:04.614Z,73.46
2022-12-31T15:55:05.363Z,73.37
2022-12-31T16:00:06.344Z,72.38
2022-12-31T16:05:00.566Z,71.75
2022-12-31T16:10:02.955Z,71.96
2022-12-31T16:15:01.131Z,71.59
2022-12-31T16:20:11.474Z,72.85
2022-12-31T16:25:30.060Z,72.55
2022-12-31T16:30:01.920Z,71.82
2022-12-31T16:35:00.467Z,71.28
2022-12-31T16:40:19.726Z,71.00
2022-12-31T16:45:20.278Z,70.40
2022-12-31T16:50:05.985Z,69.82
2022-12-31T16:55:00.777Z,69.08
2022-12-31T17:00:05.497Z,69.62
2022-12-31T17:05:00.968Z,69.51
2022-12-31T17:10:13.723Z,69.86
2022-12-31T17:15:01.967Z,69.05
2022-12-31T17:20:03.909Z,70.60
2022-12-31T17:25:04.402Z,69.41
2022-12-31T17:30:20.330Z,68.67
2022-12-31T17:35:00.709Z,69.09
2022-12-31T17:40:24.658Z,68.02
2022-12-31T17:45:04.772Z,68.17
2022-12-31T17:50:07.909Z,67.64
2022-12-31T17:55:00.452Z,66.50
2022-12-31T18:00:03.519Z,66.05
2022-12-31T18:05:00.424Z,65.72
2022-12-31T18:10:00.395Z,66.14
2022-12-31T18:15:00.420Z,66.00
2022-12-31T18:20:05.368Z,62.64
2022-12-31T18:25:01.222Z,62.42
2022-12-31T18:30:05.052Z,62.82
2022-12-31T18:35:00.408Z,61.07
2022-12-31T18:40:00.439Z,62.09
2022-12-31T18:45:00.418Z,61.05
2022-12-31T18:50:00.391Z,60.46
2022-12-31T18:55:00.398Z,60.02
2022-12-31T19:00:00.492Z,59.53
2022-12-31T19:05:00.373Z,59.21
2022-12-31T19:10:00.440Z,58.83
2022-12-31T19:15:00.404Z,59.65
2022-12-31T19:20:00.371Z,58.65
2022-12-31T19:25:00.461Z,59.77
2022-12-31T19:30:00.477Z,59.31
2022-12-31T19:35:00.404Z,59.99
2022-12-31T19:40:00.440Z,60.00
2022-12-31T19:45:00.447Z,59.32
2022-12-31T19:50:00.503Z,59.64
2022-12-31T19:55:00.367Z,59.79
2022-12-31T20:00:00.389Z,59.43
2022-12-31T20:05:00.494Z,59.06
2022-12-31T20:10:00.435Z,58.99
2022-12-31T20:15:00.491Z,58.71
2022-12-31T20:20:00.395Z,58.72
2022-12-31T20:25:00.624Z,59.45
2022-12-31T20:30:00.378Z,58.52
2022-12-31T20:35:00.604Z,57.80
2022-12-31T20:40:00.419Z,57.41
2022-12-31T20:45:00.488Z,57.68
2022-12-31T20:50:11.705Z,57.61
2022-12-31T20:55:00.392Z,58.23
2022-12-31T21:00:01.453Z,57.84
2022-12-31T21:05:00.552Z,57.92
2022-12-31T21:10:00.481Z,58.44
2022-12-31T21:15:00.467Z,58.22
2022-12-31T21:20:00.377Z,57.00
2022-12-31T21:25:01.047Z,56.67
2022-12-31T21:30:19.575Z,57.00
2022-12-31T21:35:40.305Z,56.17
2022-12-31T21:40:00.356Z,56.78
2022-12-31T21:45:00.494Z,56.91
2022-12-31T21:50:00.375Z,57.12
2022-12-31T21:55:01.931Z,56.99
2022-12-31T22:00:31.935Z,57.05
2022-12-31T22:05:02.251Z,56.73
2022-12-31T22:10:00.683Z,56.07
2022-12-31T22:15:14.695Z,56.53
2022-12-31T22:20:25.869Z,56.34
2022-12-31T22:25:00.401Z,55.85
2022-12-31T22:30:00.403Z,56.87
2022-12-31T22:35:00.358Z,56.30
2022-12-31T22:40:00.407Z,55.92
2022-12-31T22:45:00.537Z,55.73
2022-12-31T22:50:00.482Z,56.50
2022-12-31T22:55:00.479Z,57.16
2022-12-31T23:00:00.421Z,57.31
2022-12-31T23:05:15.726Z,57.36
2022-12-31T23:10:00.378Z,57.10
2022-12-31T23:15:00.497Z,56.87
2022-12-31T23:20:01.400Z,56.49
2022-12-31T23:25:00.435Z,56.27
2022-12-31T23:30:00.414Z,56.42
2022-12-31T23:35:03.292Z,56.42
2022-12-31T23:40:00.420Z,56.62
2022-12-31T23:45:00.497Z,57.01
2022-12-31T23:50:00.370Z,56.20
2022-12-31T23:55:00.460Z,56.35
